createdAt,value
2022-08-07T00:05:24.075Z,16.9
2022-08-07T00:25:23.878Z,16.9
2022-08-07T00:45:23.862Z,16.9
2022-08-07T01:05:24.487Z,16.9
2022-08-07T01:25:40.753Z,16.9
2022-08-07T01:45:26.667Z,16.9
2022-08-07T02:05:43.618Z,16.9
2022-08-07T02:25:32.276Z,16.9
2022-08-07T02:45:57.778Z,16.91
2022-08-07T03:05:24.459Z,16.9
2022-08-07T03:25:23.729Z,16.9
2022-08-07T03:45:30.542Z,16.9
2022-08-07T04:05:24.134Z,16.9
2022-08-07T04:25:23.684Z,16.9
2022-08-07T04:45:44.702Z,16.9
2022-08-07T05:05:51.647Z,16.91
2022-08-07T05:25:26.424Z,16.9
2022-08-07T06:05:25.773Z,16.9
2022-08-07T06:25:23.563Z,16.91
2022-08-07T06:45:23.536Z,16.9
2022-08-07T07:06:02.145Z,16.9
2022-08-07T07:26:31.803Z,16.91
2022-08-07T07:46:33.386Z,16.9
2022-08-07T08:05:23.453Z,16.91
2022-08-07T08:25:25.197Z,16.91
2022-08-07T08:45:26.617Z,16.91
2022-08-07T09:05:32.233Z,16.91
2022-08-07T09:25:24.219Z,16.9
2022-08-07T09:47:26.452Z,16.9
2022-08-07T10:45:44.262Z,16.9
2022-08-07T11:05:24.194Z,16.9
2022-08-07T11:25:23.328Z,16.9
2022-08-07T11:45:23.686Z,16.9
2022-08-07T12:05:28.396Z,16.89
2022-08-07T12:45:23.030Z,16.89
2022-08-07T13:25:24.417Z,16.88
2022-08-07T13:46:07.631Z,16.87
2022-08-07T14:05:23.039Z,16.87
2022-08-07T14:25:22.936Z,16.86
2022-08-07T14:45:22.980Z,16.85
2022-08-07T15:25:22.836Z,16.84
2022-08-07T15:45:22.839Z,16.83
2022-08-07T16:05:23.060Z,16.83
2022-08-07T16:25:52.921Z,16.82
2022-08-07T16:46:21.631Z,16.81
2022-08-07T17:06:02.726Z,16.81
2022-08-07T17:25:48.138Z,16.81
2022-08-07T17:45:23.425Z,16.8
2022-08-07T18:05:22.639Z,16.8
2022-08-07T18:25:24.360Z,16.8
2022-08-07T18:45:40.409Z,16.81
2022-08-07T19:05:22.617Z,16.81
2022-08-07T19:26:22.095Z,16.81
2022-08-07T19:46:05.262Z,16.82
2022-08-07T20:05:22.464Z,16.82
2022-08-07T20:45:32.299Z,16.82
2022-08-07T21:05:25.668Z,16.82
2022-08-07T21:25:22.370Z,16.82
2022-08-07T21:46:03.705Z,16.82
2022-08-07T22:05:44.153Z,16.82
2022-08-07T22:25:26.355Z,16.82
2022-08-07T22:46:05.087Z,16.82
2022-08-07T23:25:22.219Z,16.82
2022-08-07T23:45:32.958Z,16.83
